Terminal Aerodrome Forecast
Issued by NWS

Home | Current Version | Previous Version | Text Only | Print | Product List | Glossary On
Versions: 1 2 3 4 5 6 7 8 9 10 11 12 13 14 15 16 17 18 19 20 21 22 23 24 25 26 27 28 29 30 31 32 33 34 35 36
847
FTUS43 KSGF 180945 AAA
TAFJLN
TAF AMD
KJLN 180945Z 1810/1906 10004KT 1SM BR OVC003
      TEMPO 1810/1814 1/2SM FG VV002
     FM181400 15005KT 4SM BR BKN007 OVC015
     FM181600 17006KT P6SM SCT015 OVC025
     FM190200 15004KT 4SM BR OVC005=

USA.gov is the U.S. government's official web portal to all federal, state and local government web resources and services.